sensor_id;sensor_type;location;lat;lon;timestamp;P1;durP1;ratioP1;P2;durP2;ratioP2
6392;SDS011;3229;42.674;23.282;2022-12-13T00:00:21;6.23;;;4.97;;
6392;SDS011;3229;42.674;23.282;2022-12-13T00:02:48;5.77;;;4.30;;
6392;SDS011;3229;42.674;23.282;2022-12-13T00:05:15;5.67;;;4.57;;
6392;SDS011;3229;42.674;23.282;2022-12-13T00:07:42;4.97;;;4.07;;
6392;SDS011;3229;42.674;23.282;2022-12-13T00:10:10;4.73;;;4.23;;
6392;SDS011;3229;42.674;23.282;2022-12-13T00:12:37;5.00;;;4.50;;
6392;SDS011;3229;42.674;23.282;2022-12-13T00:15:04;5.13;;;4.50;;
6392;SDS011;3229;42.674;23.282;2022-12-13T00:17:31;5.47;;;4.87;;
6392;SDS011;3229;42.674;23.282;2022-12-13T00:19:59;4.30;;;3.90;;
6392;SDS011;3229;42.674;23.282;2022-12-13T00:22:26;4.83;;;4.43;;
6392;SDS011;3229;42.674;23.282;2022-12-13T00:24:53;4.77;;;4.27;;
6392;SDS011;3229;42.674;23.282;2022-12-13T00:27:22;4.97;;;4.47;;
6392;SDS011;3229;42.674;23.282;2022-12-13T00:29:49;5.57;;;4.57;;
6392;SDS011;3229;42.674;23.282;2022-12-13T00:32:16;5.00;;;4.43;;
6392;SDS011;3229;42.674;23.282;2022-12-13T00:34:42;5.07;;;4.57;;
6392;SDS011;3229;42.674;23.282;2022-12-13T00:37:09;4.67;;;4.17;;
6392;SDS011;3229;42.674;23.282;2022-12-13T00:39:36;5.63;;;4.90;;
6392;SDS011;3229;42.674;23.282;2022-12-13T00:42:03;6.27;;;4.97;;
6392;SDS011;3229;42.674;23.282;2022-12-13T00:44:32;5.77;;;4.80;;
6392;SDS011;3229;42.674;23.282;2022-12-13T00:46:59;4.90;;;4.40;;
6392;SDS011;3229;42.674;23.282;2022-12-13T00:49:26;5.53;;;4.70;;
6392;SDS011;3229;42.674;23.282;2022-12-13T00:51:53;5.10;;;4.60;;
6392;SDS011;3229;42.674;23.282;2022-12-13T00:54:19;4.93;;;4.20;;
6392;SDS011;3229;42.674;23.282;2022-12-13T00:56:46;4.87;;;4.43;;
6392;SDS011;3229;42.674;23.282;2022-12-13T00:59:15;5.10;;;4.43;;
6392;SDS011;3229;42.674;23.282;2022-12-13T01:01:43;5.17;;;4.67;;
6392;SDS011;3229;42.674;23.282;2022-12-13T01:04:10;5.73;;;4.27;;
6392;SDS011;3229;42.674;23.282;2022-12-13T01:06:39;4.83;;;4.40;;
6392;SDS011;3229;42.674;23.282;2022-12-13T01:09:08;5.00;;;4.40;;
6392;SDS011;3229;42.674;23.282;2022-12-13T01:11:41;5.03;;;4.50;;
6392;SDS011;3229;42.674;23.282;2022-12-13T01:14:08;5.30;;;4.23;;
6392;SDS011;3229;42.674;23.282;2022-12-13T01:16:35;5.23;;;4.30;;
6392;SDS011;3229;42.674;23.282;2022-12-13T01:19:03;5.17;;;4.27;;
6392;SDS011;3229;42.674;23.282;2022-12-13T01:21:30;5.83;;;4.53;;
6392;SDS011;3229;42.674;23.282;2022-12-13T01:24:00;5.17;;;4.67;;
6392;SDS011;3229;42.674;23.282;2022-12-13T01:26:28;5.73;;;4.17;;
6392;SDS011;3229;42.674;23.282;2022-12-13T01:28:55;4.60;;;3.97;;
6392;SDS011;3229;42.674;23.282;2022-12-13T01:31:22;4.63;;;4.13;;
6392;SDS011;3229;42.674;23.282;2022-12-13T01:33:49;5.00;;;3.87;;
6392;SDS011;3229;42.674;23.282;2022-12-13T01:36:18;5.20;;;4.27;;
6392;SDS011;3229;42.674;23.282;2022-12-13T01:38:46;6.87;;;4.80;;
6392;SDS011;3229;42.674;23.282;2022-12-13T01:41:13;4.37;;;3.97;;
6392;SDS011;3229;42.674;23.282;2022-12-13T01:43:51;5.13;;;4.17;;
6392;SDS011;3229;42.674;23.282;2022-12-13T01:46:20;5.20;;;4.70;;
6392;SDS011;3229;42.674;23.282;2022-12-13T01:48:48;6.47;;;5.73;;
6392;SDS011;3229;42.674;23.282;2022-12-13T01:51:20;5.23;;;4.33;;
6392;SDS011;3229;42.674;23.282;2022-12-13T01:53:52;5.33;;;4.33;;
6392;SDS011;3229;42.674;23.282;2022-12-13T01:56:22;6.17;;;4.57;;
6392;SDS011;3229;42.674;23.282;2022-12-13T01:58:53;5.60;;;4.60;;
6392;SDS011;3229;42.674;23.282;2022-12-13T02:01:22;6.43;;;4.60;;
6392;SDS011;3229;42.674;23.282;2022-12-13T02:03:50;5.40;;;4.57;;
6392;SDS011;3229;42.674;23.282;2022-12-13T02:06:18;5.73;;;4.53;;
6392;SDS011;3229;42.674;23.282;2022-12-13T02:08:52;5.43;;;4.83;;
6392;SDS011;3229;42.674;23.282;2022-12-13T02:11:19;5.97;;;4.97;;
6392;SDS011;3229;42.674;23.282;2022-12-13T02:13:46;5.40;;;4.87;;
6392;SDS011;3229;42.674;23.282;2022-12-13T02:16:15;5.87;;;5.27;;
6392;SDS011;3229;42.674;23.282;2022-12-13T02:18:55;5.90;;;4.50;;
6392;SDS011;3229;42.674;23.282;2022-12-13T02:21:37;5.80;;;5.20;;
6392;SDS011;3229;42.674;23.282;2022-12-13T02:32:55;7.37;;;5.17;;
6392;SDS011;3229;42.674;23.282;2022-12-13T02:35:31;6.67;;;5.23;;
6392;SDS011;3229;42.674;23.282;2022-12-13T02:38:07;6.17;;;5.07;;
6392;SDS011;3229;42.674;23.282;2022-12-13T02:40:38;5.97;;;4.87;;
6392;SDS011;3229;42.674;23.282;2022-12-13T02:43:11;6.33;;;5.37;;
6392;SDS011;3229;42.674;23.282;2022-12-13T02:45:44;5.87;;;5.23;;
6392;SDS011;3229;42.674;23.282;2022-12-13T02:48:14;5.43;;;4.93;;
6392;SDS011;3229;42.674;23.282;2022-12-13T02:50:46;6.70;;;5.30;;
6392;SDS011;3229;42.674;23.282;2022-12-13T02:53:16;6.57;;;5.03;;
6392;SDS011;3229;42.674;23.282;2022-12-13T02:55:43;6.80;;;5.27;;
6392;SDS011;3229;42.674;23.282;2022-12-13T02:58:11;5.20;;;4.70;;
6392;SDS011;3229;42.674;23.282;2022-12-13T03:00:42;5.67;;;5.07;;
6392;SDS011;3229;42.674;23.282;2022-12-13T03:03:21;5.53;;;4.90;;
6392;SDS011;3229;42.674;23.282;2022-12-13T03:06:00;6.50;;;5.40;;
6392;SDS011;3229;42.674;23.282;2022-12-13T03:08:54;5.23;;;4.73;;
6392;SDS011;3229;42.674;23.282;2022-12-13T03:11:32;5.77;;;5.13;;
6392;SDS011;3229;42.674;23.282;2022-12-13T03:14:24;6.53;;;5.70;;
6392;SDS011;3229;42.674;23.282;2022-12-13T03:16:53;6.47;;;5.00;;
6392;SDS011;3229;42.674;23.282;2022-12-13T03:19:21;6.50;;;4.67;;
6392;SDS011;3229;42.674;23.282;2022-12-13T03:21:48;6.70;;;5.50;;
6392;SDS011;3229;42.674;23.282;2022-12-13T03:24:15;7.00;;;5.30;;
6392;SDS011;3229;42.674;23.282;2022-12-13T03:26:43;5.77;;;5.13;;
6392;SDS011;3229;42.674;23.282;2022-12-13T03:29:11;5.33;;;4.80;;
6392;SDS011;3229;42.674;23.282;2022-12-13T03:31:38;8.00;;;5.40;;
6392;SDS011;3229;42.674;23.282;2022-12-13T03:34:06;6.83;;;5.50;;
6392;SDS011;3229;42.674;23.282;2022-12-13T03:36:33;7.27;;;5.93;;
6392;SDS011;3229;42.674;23.282;2022-12-13T03:39:00;8.50;;;5.50;;
6392;SDS011;3229;42.674;23.282;2022-12-13T03:41:27;6.07;;;5.00;;
6392;SDS011;3229;42.674;23.282;2022-12-13T03:43:56;6.63;;;5.43;;
6392;SDS011;3229;42.674;23.282;2022-12-13T03:46:23;6.50;;;5.80;;
6392;SDS011;3229;42.674;23.282;2022-12-13T03:48:49;7.53;;;6.07;;
6392;SDS011;3229;42.674;23.282;2022-12-13T03:51:17;6.37;;;5.73;;
6392;SDS011;3229;42.674;23.282;2022-12-13T03:53:44;6.10;;;5.10;;
6392;SDS011;3229;42.674;23.282;2022-12-13T03:56:11;7.07;;;5.70;;
6392;SDS011;3229;42.674;23.282;2022-12-13T03:58:38;7.33;;;5.23;;
6392;SDS011;3229;42.674;23.282;2022-12-13T04:01:06;6.87;;;5.30;;
6392;SDS011;3229;42.674;23.282;2022-12-13T04:03:35;6.17;;;5.37;;
6392;SDS011;3229;42.674;23.282;2022-12-13T04:06:03;5.33;;;4.83;;
6392;SDS011;3229;42.674;23.282;2022-12-13T04:08:31;6.37;;;5.00;;
6392;SDS011;3229;42.674;23.282;2022-12-13T04:10:59;6.87;;;5.77;;
6392;SDS011;3229;42.674;23.282;2022-12-13T04:13:47;6.27;;;5.30;;
6392;SDS011;3229;42.674;23.282;2022-12-13T04:16:13;6.63;;;5.10;;
6392;SDS011;3229;42.674;23.282;2022-12-13T04:18:40;7.60;;;5.13;;
6392;SDS011;3229;42.674;23.282;2022-12-13T04:21:07;7.07;;;5.60;;
6392;SDS011;3229;42.674;23.282;2022-12-13T04:23:35;6.40;;;5.33;;
6392;SDS011;3229;42.674;23.282;2022-12-13T04:26:02;7.37;;;5.20;;
6392;SDS011;3229;42.674;23.282;2022-12-13T04:28:28;7.87;;;5.67;;
6392;SDS011;3229;42.674;23.282;2022-12-13T04:30:55;7.17;;;5.50;;
6392;SDS011;3229;42.674;23.282;2022-12-13T04:33:22;6.03;;;5.40;;
6392;SDS011;3229;42.674;23.282;2022-12-13T04:35:49;7.80;;;5.77;;
6392;SDS011;3229;42.674;23.282;2022-12-13T04:38:17;7.13;;;5.80;;
6392;SDS011;3229;42.674;23.282;2022-12-13T04:41:11;6.97;;;5.60;;
6392;SDS011;3229;42.674;23.282;2022-12-13T04:43:53;7.57;;;5.60;;
6392;SDS011;3229;42.674;23.282;2022-12-13T04:46:20;8.93;;;5.63;;
6392;SDS011;3229;42.674;23.282;2022-12-13T04:48:47;7.27;;;5.87;;
6392;SDS011;3229;42.674;23.282;2022-12-13T04:51:19;7.57;;;6.23;;
6392;SDS011;3229;42.674;23.282;2022-12-13T04:53:47;8.63;;;5.40;;
6392;SDS011;3229;42.674;23.282;2022-12-13T04:56:15;8.80;;;5.60;;
6392;SDS011;3229;42.674;23.282;2022-12-13T04:58:42;7.23;;;5.53;;
6392;SDS011;3229;42.674;23.282;2022-12-13T05:01:09;7.80;;;5.80;;
6392;SDS011;3229;42.674;23.282;2022-12-13T05:03:36;6.93;;;5.73;;
6392;SDS011;3229;42.674;23.282;2022-12-13T05:06:04;6.57;;;5.57;;
6392;SDS011;3229;42.674;23.282;2022-12-13T05:08:31;6.43;;;5.53;;
6392;SDS011;3229;42.674;23.282;2022-12-13T05:10:58;6.80;;;6.00;;
6392;SDS011;3229;42.674;23.282;2022-12-13T05:13:27;7.57;;;5.57;;
6392;SDS011;3229;42.674;23.282;2022-12-13T05:15:54;5.83;;;5.23;;
6392;SDS011;3229;42.674;23.282;2022-12-13T05:18:21;7.80;;;6.07;;
6392;SDS011;3229;42.674;23.282;2022-12-13T05:20:52;8.20;;;5.67;;
6392;SDS011;3229;42.674;23.282;2022-12-13T05:23:19;9.17;;;6.23;;
6392;SDS011;3229;42.674;23.282;2022-12-13T05:25:46;6.60;;;5.87;;
6392;SDS011;3229;42.674;23.282;2022-12-13T05:28:13;6.80;;;5.40;;
6392;SDS011;3229;42.674;23.282;2022-12-13T05:30:42;7.83;;;5.63;;
6392;SDS011;3229;42.674;23.282;2022-12-13T05:33:09;7.10;;;6.10;;
6392;SDS011;3229;42.674;23.282;2022-12-13T05:35:36;6.17;;;5.27;;
6392;SDS011;3229;42.674;23.282;2022-12-13T05:38:03;6.40;;;5.80;;
6392;SDS011;3229;42.674;23.282;2022-12-13T05:40:31;8.30;;;6.20;;
6392;SDS011;3229;42.674;23.282;2022-12-13T05:42:58;9.37;;;6.30;;
6392;SDS011;3229;42.674;23.282;2022-12-13T05:45:24;7.17;;;5.60;;
6392;SDS011;3229;42.674;23.282;2022-12-13T05:47:53;6.17;;;5.37;;
6392;SDS011;3229;42.674;23.282;2022-12-13T05:50:19;7.27;;;5.80;;
6392;SDS011;3229;42.674;23.282;2022-12-13T05:52:46;7.47;;;6.13;;
6392;SDS011;3229;42.674;23.282;2022-12-13T05:55:13;6.90;;;6.17;;
6392;SDS011;3229;42.674;23.282;2022-12-13T05:57:40;6.83;;;5.97;;
6392;SDS011;3229;42.674;23.282;2022-12-13T06:00:09;6.83;;;5.83;;
6392;SDS011;3229;42.674;23.282;2022-12-13T06:02:37;7.33;;;6.27;;
6392;SDS011;3229;42.674;23.282;2022-12-13T06:05:06;6.13;;;4.57;;
6392;SDS011;3229;42.674;23.282;2022-12-13T06:07:34;9.57;;;5.00;;
6392;SDS011;3229;42.674;23.282;2022-12-13T06:10:01;5.47;;;4.53;;
6392;SDS011;3229;42.674;23.282;2022-12-13T06:12:28;10.90;;;5.00;;
6392;SDS011;3229;42.674;23.282;2022-12-13T06:14:54;8.47;;;5.37;;
6392;SDS011;3229;42.674;23.282;2022-12-13T06:17:21;7.83;;;5.20;;
6392;SDS011;3229;42.674;23.282;2022-12-13T06:19:49;5.63;;;5.07;;
6392;SDS011;3229;42.674;23.282;2022-12-13T06:22:18;7.23;;;5.17;;
6392;SDS011;3229;42.674;23.282;2022-12-13T06:24:46;7.00;;;5.27;;
6392;SDS011;3229;42.674;23.282;2022-12-13T06:27:12;6.80;;;5.37;;
6392;SDS011;3229;42.674;23.282;2022-12-13T06:29:39;8.90;;;6.03;;
6392;SDS011;3229;42.674;23.282;2022-12-13T06:32:06;10.63;;;6.00;;
6392;SDS011;3229;42.674;23.282;2022-12-13T06:34:33;10.60;;;5.97;;
6392;SDS011;3229;42.674;23.282;2022-12-13T06:37:01;10.80;;;6.60;;
6392;SDS011;3229;42.674;23.282;2022-12-13T06:39:31;12.77;;;6.47;;
6392;SDS011;3229;42.674;23.282;2022-12-13T06:41:58;9.53;;;6.73;;
6392;SDS011;3229;42.674;23.282;2022-12-13T06:44:25;7.70;;;6.60;;
6392;SDS011;3229;42.674;23.282;2022-12-13T06:46:52;7.67;;;6.13;;
6392;SDS011;3229;42.674;23.282;2022-12-13T06:49:19;8.53;;;6.37;;
6392;SDS011;3229;42.674;23.282;2022-12-13T06:51:45;11.87;;;7.40;;
6392;SDS011;3229;42.674;23.282;2022-12-13T06:54:12;12.97;;;7.03;;
6392;SDS011;3229;42.674;23.282;2022-12-13T06:56:40;8.97;;;6.93;;
6392;SDS011;3229;42.674;23.282;2022-12-13T06:59:07;9.77;;;7.40;;
6392;SDS011;3229;42.674;23.282;2022-12-13T07:01:34;10.47;;;7.80;;
6392;SDS011;3229;42.674;23.282;2022-12-13T07:04:01;9.00;;;7.03;;
6392;SDS011;3229;42.674;23.282;2022-12-13T07:06:28;10.00;;;7.27;;
6392;SDS011;3229;42.674;23.282;2022-12-13T07:08:56;10.87;;;7.13;;
6392;SDS011;3229;42.674;23.282;2022-12-13T07:11:24;8.90;;;7.10;;
6392;SDS011;3229;42.674;23.282;2022-12-13T07:13:54;10.50;;;7.17;;
6392;SDS011;3229;42.674;23.282;2022-12-13T07:16:22;9.87;;;7.47;;
6392;SDS011;3229;42.674;23.282;2022-12-13T07:18:52;9.53;;;7.50;;
6392;SDS011;3229;42.674;23.282;2022-12-13T07:21:19;8.97;;;7.83;;
6392;SDS011;3229;42.674;23.282;2022-12-13T07:23:46;8.60;;;6.70;;
6392;SDS011;3229;42.674;23.282;2022-12-13T07:26:14;10.00;;;7.90;;
6392;SDS011;3229;42.674;23.282;2022-12-13T07:28:41;11.53;;;8.20;;
6392;SDS011;3229;42.674;23.282;2022-12-13T07:31:10;10.03;;;8.20;;
6392;SDS011;3229;42.674;23.282;2022-12-13T07:33:37;11.70;;;8.43;;
6392;SDS011;3229;42.674;23.282;2022-12-13T07:36:05;12.97;;;8.60;;
6392;SDS011;3229;42.674;23.282;2022-12-13T07:38:34;9.60;;;7.97;;
6392;SDS011;3229;42.674;23.282;2022-12-13T07:41:02;10.87;;;8.07;;
6392;SDS011;3229;42.674;23.282;2022-12-13T07:43:30;10.67;;;7.63;;
6392;SDS011;3229;42.674;23.282;2022-12-13T07:45:57;10.20;;;8.67;;
6392;SDS011;3229;42.674;23.282;2022-12-13T07:48:26;10.10;;;8.03;;
6392;SDS011;3229;42.674;23.282;2022-12-13T07:50:53;9.37;;;7.43;;
6392;SDS011;3229;42.674;23.282;2022-12-13T07:53:25;13.07;;;8.47;;
6392;SDS011;3229;42.674;23.282;2022-12-13T07:55:52;10.80;;;8.23;;
6392;SDS011;3229;42.674;23.282;2022-12-13T07:58:19;9.87;;;7.90;;
6392;SDS011;3229;42.674;23.282;2022-12-13T08:00:46;9.63;;;7.77;;
6392;SDS011;3229;42.674;23.282;2022-12-13T08:03:13;9.30;;;8.13;;
6392;SDS011;3229;42.674;23.282;2022-12-13T08:05:42;10.60;;;8.03;;
6392;SDS011;3229;42.674;23.282;2022-12-13T08:08:09;12.63;;;8.17;;
6392;SDS011;3229;42.674;23.282;2022-12-13T08:10:36;12.13;;;8.43;;
6392;SDS011;3229;42.674;23.282;2022-12-13T08:13:03;10.33;;;8.47;;
6392;SDS011;3229;42.674;23.282;2022-12-13T08:15:31;11.60;;;8.50;;
6392;SDS011;3229;42.674;23.282;2022-12-13T08:17:58;11.77;;;9.67;;
6392;SDS011;3229;42.674;23.282;2022-12-13T08:20:25;12.10;;;8.93;;
6392;SDS011;3229;42.674;23.282;2022-12-13T08:22:55;11.47;;;8.43;;
6392;SDS011;3229;42.674;23.282;2022-12-13T08:25:22;10.23;;;8.50;;
6392;SDS011;3229;42.674;23.282;2022-12-13T08:27:50;9.03;;;7.77;;
6392;SDS011;3229;42.674;23.282;2022-12-13T08:30:17;12.00;;;8.53;;
6392;SDS011;3229;42.674;23.282;2022-12-13T08:32:44;10.53;;;8.07;;
6392;SDS011;3229;42.674;23.282;2022-12-13T08:35:11;11.47;;;8.70;;
6392;SDS011;3229;42.674;23.282;2022-12-13T08:37:37;12.03;;;9.27;;
6392;SDS011;3229;42.674;23.282;2022-12-13T08:40:06;13.37;;;9.33;;
6392;SDS011;3229;42.674;23.282;2022-12-13T08:42:34;11.87;;;8.03;;
6392;SDS011;3229;42.674;23.282;2022-12-13T08:45:01;11.87;;;8.77;;
6392;SDS011;3229;42.674;23.282;2022-12-13T08:47:28;12.63;;;8.40;;
6392;SDS011;3229;42.674;23.282;2022-12-13T08:49:56;11.67;;;9.07;;
6392;SDS011;3229;42.674;23.282;2022-12-13T08:52:24;11.37;;;8.67;;
6392;SDS011;3229;42.674;23.282;2022-12-13T08:54:51;12.23;;;9.53;;
6392;SDS011;3229;42.674;23.282;2022-12-13T08:57:19;10.37;;;8.70;;
6392;SDS011;3229;42.674;23.282;2022-12-13T08:59:46;13.13;;;9.17;;
6392;SDS011;3229;42.674;23.282;2022-12-13T09:02:13;12.30;;;9.43;;
6392;SDS011;3229;42.674;23.282;2022-12-13T09:04:40;12.17;;;9.40;;
6392;SDS011;3229;42.674;23.282;2022-12-13T09:07:07;12.73;;;9.33;;
6392;SDS011;3229;42.674;23.282;2022-12-13T09:09:34;11.30;;;8.97;;
6392;SDS011;3229;42.674;23.282;2022-12-13T09:12:01;10.97;;;8.70;;
6392;SDS011;3229;42.674;23.282;2022-12-13T09:14:30;13.23;;;8.87;;
6392;SDS011;3229;42.674;23.282;2022-12-13T09:16:57;11.87;;;9.13;;
6392;SDS011;3229;42.674;23.282;2022-12-13T09:19:23;15.03;;;8.70;;
6392;SDS011;3229;42.674;23.282;2022-12-13T09:21:50;10.33;;;8.23;;
6392;SDS011;3229;42.674;23.282;2022-12-13T09:24:17;10.00;;;8.10;;
6392;SDS011;3229;42.674;23.282;2022-12-13T09:26:45;12.23;;;8.57;;
6392;SDS011;3229;42.674;23.282;2022-12-13T09:29:11;10.77;;;8.37;;
6392;SDS011;3229;42.674;23.282;2022-12-13T09:31:41;11.20;;;8.27;;
6392;SDS011;3229;42.674;23.282;2022-12-13T09:34:08;12.27;;;7.97;;
6392;SDS011;3229;42.674;23.282;2022-12-13T09:36:35;9.97;;;8.13;;
6392;SDS011;3229;42.674;23.282;2022-12-13T09:39:02;8.97;;;7.40;;
6392;SDS011;3229;42.674;23.282;2022-12-13T09:41:30;9.43;;;8.13;;
6392;SDS011;3229;42.674;23.282;2022-12-13T09:44:02;8.47;;;7.40;;
6392;SDS011;3229;42.674;23.282;2022-12-13T09:46:31;9.67;;;6.90;;
6392;SDS011;3229;42.674;23.282;2022-12-13T09:49:02;7.70;;;6.80;;
6392;SDS011;3229;42.674;23.282;2022-12-13T09:51:33;8.87;;;6.87;;
6392;SDS011;3229;42.674;23.282;2022-12-13T09:53:59;7.57;;;6.47;;
6392;SDS011;3229;42.674;23.282;2022-12-13T09:56:26;10.37;;;7.13;;
6392;SDS011;3229;42.674;23.282;2022-12-13T09:58:54;8.63;;;6.73;;
6392;SDS011;3229;42.674;23.282;2022-12-13T10:01:21;7.37;;;6.23;;
6392;SDS011;3229;42.674;23.282;2022-12-13T10:03:50;7.57;;;6.20;;
6392;SDS011;3229;42.674;23.282;2022-12-13T10:06:21;8.67;;;7.00;;
6392;SDS011;3229;42.674;23.282;2022-12-13T10:08:49;8.90;;;7.10;;
6392;SDS011;3229;42.674;23.282;2022-12-13T10:11:18;8.97;;;6.73;;
6392;SDS011;3229;42.674;23.282;2022-12-13T10:13:47;7.57;;;6.37;;
6392;SDS011;3229;42.674;23.282;2022-12-13T10:16:24;7.93;;;6.00;;
6392;SDS011;3229;42.674;23.282;2022-12-13T10:18:55;7.77;;;6.67;;
6392;SDS011;3229;42.674;23.282;2022-12-13T10:21:25;8.83;;;6.17;;
6392;SDS011;3229;42.674;23.282;2022-12-13T10:23:56;11.17;;;6.37;;
6392;SDS011;3229;42.674;23.282;2022-12-13T10:26:34;8.43;;;6.37;;
6392;SDS011;3229;42.674;23.282;2022-12-13T10:29:02;6.67;;;6.00;;
6392;SDS011;3229;42.674;23.282;2022-12-13T10:31:37;7.40;;;6.57;;
6392;SDS011;3229;42.674;23.282;2022-12-13T10:34:07;6.53;;;5.47;;
6392;SDS011;3229;42.674;23.282;2022-12-13T10:36:47;7.27;;;5.87;;
6392;SDS011;3229;42.674;23.282;2022-12-13T10:39:15;6.77;;;5.53;;
6392;SDS011;3229;42.674;23.282;2022-12-13T10:41:44;7.73;;;5.60;;
6392;SDS011;3229;42.674;23.282;2022-12-13T10:44:21;6.73;;;5.93;;
6392;SDS011;3229;42.674;23.282;2022-12-13T10:46:50;6.93;;;5.77;;
6392;SDS011;3229;42.674;23.282;2022-12-13T10:49:31;6.13;;;5.43;;
6392;SDS011;3229;42.674;23.282;2022-12-13T10:52:05;6.70;;;5.30;;
6392;SDS011;3229;42.674;23.282;2022-12-13T10:54:46;7.70;;;5.43;;
6392;SDS011;3229;42.674;23.282;2022-12-13T10:57:15;7.90;;;5.53;;
6392;SDS011;3229;42.674;23.282;2022-12-13T10:59:42;6.03;;;5.33;;
6392;SDS011;3229;42.674;23.282;2022-12-13T11:02:24;6.60;;;5.37;;
6392;SDS011;3229;42.674;23.282;2022-12-13T11:04:54;6.83;;;5.53;;
6392;SDS011;3229;42.674;23.282;2022-12-13T11:07:26;6.23;;;5.17;;
6392;SDS011;3229;42.674;23.282;2022-12-13T11:09:53;6.53;;;5.50;;
6392;SDS011;3229;42.674;23.282;2022-12-13T11:12:21;6.00;;;5.13;;
6392;SDS011;3229;42.674;23.282;2022-12-13T11:14:51;5.77;;;5.17;;
6392;SDS011;3229;42.674;23.282;2022-12-13T11:17:21;6.87;;;5.60;;
6392;SDS011;3229;42.674;23.282;2022-12-13T11:19:52;6.50;;;5.67;;
6392;SDS011;3229;42.674;23.282;2022-12-13T11:22:22;6.97;;;6.27;;
6392;SDS011;3229;42.674;23.282;2022-12-13T11:24:52;6.03;;;5.27;;
6392;SDS011;3229;42.674;23.282;2022-12-13T11:27:35;6.73;;;5.37;;
6392;SDS011;3229;42.674;23.282;2022-12-13T11:30:23;7.67;;;6.00;;
6392;SDS011;3229;42.674;23.282;2022-12-13T11:33:01;7.17;;;5.60;;
6392;SDS011;3229;42.674;23.282;2022-12-13T11:35:45;6.67;;;5.37;;
6392;SDS011;3229;42.674;23.282;2022-12-13T11:38:27;7.47;;;5.77;;
6392;SDS011;3229;42.674;23.282;2022-12-13T11:40:58;8.17;;;5.93;;
6392;SDS011;3229;42.674;23.282;2022-12-13T11:43:32;6.40;;;5.70;;
6392;SDS011;3229;42.674;23.282;2022-12-13T11:46:03;7.97;;;5.90;;
6392;SDS011;3229;42.674;23.282;2022-12-13T11:48:39;7.53;;;5.47;;
6392;SDS011;3229;42.674;23.282;2022-12-13T11:51:10;7.17;;;6.23;;
6392;SDS011;3229;42.674;23.282;2022-12-13T11:53:44;7.63;;;5.70;;
6392;SDS011;3229;42.674;23.282;2022-12-13T11:56:20;6.37;;;5.40;;
6392;SDS011;3229;42.674;23.282;2022-12-13T11:58:52;6.67;;;5.63;;
6392;SDS011;3229;42.674;23.282;2022-12-13T12:01:26;6.57;;;5.70;;
6392;SDS011;3229;42.674;23.282;2022-12-13T12:04:00;6.17;;;5.57;;
6392;SDS011;3229;42.674;23.282;2022-12-13T12:06:37;7.10;;;5.47;;
6392;SDS011;3229;42.674;23.282;2022-12-13T12:09:11;7.70;;;6.03;;
6392;SDS011;3229;42.674;23.282;2022-12-13T12:11:42;7.10;;;5.70;;
6392;SDS011;3229;42.674;23.282;2022-12-13T12:14:13;8.87;;;5.90;;
6392;SDS011;3229;42.674;23.282;2022-12-13T12:16:46;8.40;;;5.77;;
6392;SDS011;3229;42.674;23.282;2022-12-13T12:19:17;7.77;;;5.37;;
6392;SDS011;3229;42.674;23.282;2022-12-13T12:21:50;8.50;;;5.60;;
6392;SDS011;3229;42.674;23.282;2022-12-13T12:24:27;6.43;;;5.50;;
6392;SDS011;3229;42.674;23.282;2022-12-13T12:27:08;6.43;;;5.17;;
6392;SDS011;3229;42.674;23.282;2022-12-13T12:29:53;7.13;;;5.70;;
6392;SDS011;3229;42.674;23.282;2022-12-13T12:32:31;7.53;;;5.40;;
6392;SDS011;3229;42.674;23.282;2022-12-13T12:35:17;6.10;;;5.50;;
6392;SDS011;3229;42.674;23.282;2022-12-13T12:37:57;7.30;;;5.63;;
6392;SDS011;3229;42.674;23.282;2022-12-13T12:40:50;8.70;;;5.97;;
6392;SDS011;3229;42.674;23.282;2022-12-13T12:43:28;6.50;;;5.63;;
6392;SDS011;3229;42.674;23.282;2022-12-13T12:46:02;6.10;;;5.10;;
6392;SDS011;3229;42.674;23.282;2022-12-13T12:51:46;5.93;;;5.23;;
6392;SDS011;3229;42.674;23.282;2022-12-13T12:54:27;5.70;;;5.10;;
6392;SDS011;3229;42.674;23.282;2022-12-13T12:57:04;6.50;;;5.83;;
6392;SDS011;3229;42.674;23.282;2022-12-13T12:59:39;7.83;;;5.53;;
6392;SDS011;3229;42.674;23.282;2022-12-13T13:02:17;8.23;;;5.37;;
6392;SDS011;3229;42.674;23.282;2022-12-13T13:04:51;6.77;;;5.37;;
6392;SDS011;3229;42.674;23.282;2022-12-13T13:07:22;7.17;;;5.63;;
6392;SDS011;3229;42.674;23.282;2022-12-13T13:09:52;6.50;;;5.20;;
6392;SDS011;3229;42.674;23.282;2022-12-13T13:12:21;6.93;;;5.60;;
6392;SDS011;3229;42.674;23.282;2022-12-13T13:14:49;7.07;;;6.00;;
6392;SDS011;3229;42.674;23.282;2022-12-13T13:20:15;6.40;;;5.17;;
6392;SDS011;3229;42.674;23.282;2022-12-13T13:22:47;5.77;;;5.13;;
6392;SDS011;3229;42.674;23.282;2022-12-13T13:28:04;5.53;;;5.03;;
6392;SDS011;3229;42.674;23.282;2022-12-13T13:30:45;6.47;;;5.30;;
6392;SDS011;3229;42.674;23.282;2022-12-13T13:33:44;6.50;;;5.30;;
6392;SDS011;3229;42.674;23.282;2022-12-13T13:39:13;6.80;;;5.13;;
6392;SDS011;3229;42.674;23.282;2022-12-13T13:41:53;7.53;;;5.40;;
6392;SDS011;3229;42.674;23.282;2022-12-13T13:44:52;7.03;;;5.43;;
6392;SDS011;3229;42.674;23.282;2022-12-13T13:56:43;6.43;;;4.70;;
6392;SDS011;3229;42.674;23.282;2022-12-13T14:06:06;6.90;;;5.70;;
6392;SDS011;3229;42.674;23.282;2022-12-13T14:12:24;6.53;;;5.33;;
6392;SDS011;3229;42.674;23.282;2022-12-13T14:15:42;6.23;;;5.10;;
6392;SDS011;3229;42.674;23.282;2022-12-13T14:18:38;6.63;;;5.67;;
6392;SDS011;3229;42.674;23.282;2022-12-13T14:21:29;6.20;;;5.47;;
6392;SDS011;3229;42.674;23.282;2022-12-13T14:24:04;6.93;;;6.00;;
6392;SDS011;3229;42.674;23.282;2022-12-13T14:26:45;8.03;;;6.30;;
6392;SDS011;3229;42.674;23.282;2022-12-13T14:29:26;8.63;;;6.20;;
6392;SDS011;3229;42.674;23.282;2022-12-13T14:31:57;9.53;;;6.77;;
6392;SDS011;3229;42.674;23.282;2022-12-13T14:34:24;7.00;;;6.30;;
6392;SDS011;3229;42.674;23.282;2022-12-13T14:36:54;9.83;;;6.60;;
6392;SDS011;3229;42.674;23.282;2022-12-13T14:39:22;8.77;;;6.77;;
6392;SDS011;3229;42.674;23.282;2022-12-13T14:41:50;8.13;;;6.50;;
6392;SDS011;3229;42.674;23.282;2022-12-13T14:44:22;9.80;;;6.70;;
6392;SDS011;3229;42.674;23.282;2022-12-13T14:46:53;7.70;;;6.37;;
6392;SDS011;3229;42.674;23.282;2022-12-13T14:49:23;6.90;;;6.07;;
6392;SDS011;3229;42.674;23.282;2022-12-13T14:51:52;7.23;;;6.07;;
6392;SDS011;3229;42.674;23.282;2022-12-13T14:54:26;10.67;;;7.33;;
6392;SDS011;3229;42.674;23.282;2022-12-13T14:56:58;7.87;;;7.07;;
6392;SDS011;3229;42.674;23.282;2022-12-13T14:59:26;7.37;;;6.33;;
6392;SDS011;3229;42.674;23.282;2022-12-13T15:01:54;9.00;;;7.27;;
6392;SDS011;3229;42.674;23.282;2022-12-13T15:04:28;7.27;;;6.57;;
6392;SDS011;3229;42.674;23.282;2022-12-13T15:06:58;6.93;;;6.23;;
6392;SDS011;3229;42.674;23.282;2022-12-13T15:09:28;9.20;;;6.80;;
6392;SDS011;3229;42.674;23.282;2022-12-13T15:11:55;9.20;;;7.13;;
6392;SDS011;3229;42.674;23.282;2022-12-13T15:14:24;8.30;;;6.53;;
6392;SDS011;3229;42.674;23.282;2022-12-13T15:16:51;7.93;;;7.13;;
6392;SDS011;3229;42.674;23.282;2022-12-13T15:19:21;7.93;;;6.40;;
6392;SDS011;3229;42.674;23.282;2022-12-13T15:21:54;8.40;;;7.00;;
6392;SDS011;3229;42.674;23.282;2022-12-13T15:24:24;11.83;;;7.50;;
6392;SDS011;3229;42.674;23.282;2022-12-13T15:26:54;9.23;;;7.33;;
6392;SDS011;3229;42.674;23.282;2022-12-13T15:29:23;12.03;;;8.37;;
6392;SDS011;3229;42.674;23.282;2022-12-13T15:31:52;8.70;;;7.00;;
6392;SDS011;3229;42.674;23.282;2022-12-13T15:34:31;9.43;;;7.90;;
6392;SDS011;3229;42.674;23.282;2022-12-13T15:37:02;8.33;;;7.20;;
6392;SDS011;3229;42.674;23.282;2022-12-13T15:39:35;10.77;;;7.37;;
6392;SDS011;3229;42.674;23.282;2022-12-13T15:42:03;10.33;;;7.87;;
6392;SDS011;3229;42.674;23.282;2022-12-13T15:44:32;11.53;;;7.50;;
6392;SDS011;3229;42.674;23.282;2022-12-13T15:47:06;11.57;;;8.20;;
6392;SDS011;3229;42.674;23.282;2022-12-13T15:49:39;8.80;;;7.07;;
6392;SDS011;3229;42.674;23.282;2022-12-13T15:52:23;10.67;;;7.97;;
6392;SDS011;3229;42.674;23.282;2022-12-13T15:54:54;10.10;;;8.70;;
6392;SDS011;3229;42.674;23.282;2022-12-13T15:57:22;12.33;;;8.97;;